createdAt,value
2022-11-12T00:00:47.486Z,2.97
2022-11-12T00:03:35.892Z,3.03
2022-11-12T00:06:24.339Z,3.13
2022-11-12T00:09:15.393Z,2.70
2022-11-12T00:12:03.890Z,2.70
2022-11-12T00:14:52.218Z,3.40
2022-11-12T00:17:40.778Z,2.80
2022-11-12T00:20:29.310Z,2.93
2022-11-12T00:23:18.099Z,2.47
2022-11-12T00:26:09.263Z,2.67
2022-11-12T00:28:58.392Z,2.80
2022-11-12T00:31:46.730Z,3.30
2022-11-12T00:34:35.381Z,2.57
2022-11-12T00:37:25.260Z,2.87
2022-11-12T00:40:14.240Z,2.80
2022-11-12T00:43:05.341Z,3.20
2022-11-12T00:45:53.926Z,2.47
2022-11-12T00:48:42.366Z,4.00
2022-11-12T00:51:30.822Z,3.90
2022-11-12T00:54:19.251Z,3.90
2022-11-12T00:57:07.445Z,3.90
2022-11-12T00:59:58.140Z,4.67
2022-11-12T01:02:50.694Z,3.90
2022-11-12T01:05:39.787Z,3.77
2022-11-12T01:08:28.176Z,4.03
2022-11-12T01:11:19.636Z,3.37
2022-11-12T01:14:09.862Z,3.13
2022-11-12T01:17:01.019Z,3.43
2022-11-12T01:19:49.263Z,3.20
2022-11-12T01:22:37.643Z,3.53
2022-11-12T01:25:25.711Z,3.20
2022-11-12T01:28:13.880Z,3.83
2022-11-12T01:31:13.035Z,5.10
2022-11-12T01:34:05.783Z,4.60
2022-11-12T01:36:54.289Z,4.67
2022-11-12T01:39:42.406Z,4.23
2022-11-12T01:42:33.048Z,4.43
2022-11-12T01:45:21.482Z,4.30
2022-11-12T01:48:15.068Z,4.40
2022-11-12T01:51:07.958Z,4.23
2022-11-12T01:54:01.543Z,5.20
2022-11-12T01:56:50.855Z,4.30
2022-11-12T01:59:44.525Z,3.90
2022-11-12T02:02:35.298Z,3.83
2022-11-12T02:05:25.346Z,4.00
2022-11-12T02:08:16.706Z,4.33
2022-11-12T02:11:15.492Z,3.97
2022-11-12T02:14:01.581Z,4.10
2022-11-12T02:16:51.586Z,4.90
2022-11-12T02:19:40.709Z,4.27
2022-11-12T02:22:31.549Z,4.40
2022-11-12T02:25:23.603Z,4.93
2022-11-12T02:28:11.808Z,4.80
2022-11-12T02:31:00.247Z,4.23
2022-11-12T02:33:48.401Z,3.80
2022-11-12T02:36:36.836Z,4.30
2022-11-12T02:39:27.980Z,4.00
2022-11-12T02:42:16.063Z,3.90
2022-11-12T02:45:04.714Z,4.30
2022-11-12T02:47:53.036Z,4.50
2022-11-12T02:50:41.390Z,3.90
2022-11-12T02:53:29.753Z,4.23
2022-11-12T02:56:20.432Z,3.83
2022-11-12T02:59:08.460Z,4.43
2022-11-12T03:01:59.849Z,4.33
2022-11-12T03:04:49.567Z,3.87
2022-11-12T03:07:37.940Z,3.90
2022-11-12T03:10:27.364Z,3.80
2022-11-12T03:13:18.634Z,3.80
2022-11-12T03:16:07.493Z,3.93
2022-11-12T03:18:55.756Z,3.87
2022-11-12T03:21:43.937Z,3.93
2022-11-12T03:24:32.482Z,3.60
2022-11-12T03:27:20.678Z,4.30
2022-11-12T03:30:12.262Z,4.20
2022-11-12T03:33:00.686Z,3.50
2022-11-12T03:35:49.122Z,3.70
2022-11-12T03:38:37.494Z,3.70
2022-11-12T03:41:25.890Z,4.00
2022-11-12T03:44:14.363Z,4.00
2022-11-12T03:47:05.018Z,3.90
2022-11-12T03:49:53.218Z,3.90
2022-11-12T03:52:41.811Z,3.60
2022-11-12T03:55:31.907Z,4.00
2022-11-12T03:58:20.252Z,4.90
2022-11-12T04:01:08.927Z,4.30
2022-11-12T04:04:00.313Z,4.10
2022-11-12T04:07:01.217Z,3.87
2022-11-12T04:09:49.536Z,4.40
2022-11-12T04:12:50.482Z,3.97
2022-11-12T04:15:39.062Z,4.00
2022-11-12T04:18:39.770Z,3.90
2022-11-12T04:21:55.475Z,3.97
2022-11-12T04:24:57.949Z,4.13
2022-11-12T04:27:46.105Z,3.83
2022-11-12T04:30:31.574Z,3.57
2022-11-12T04:33:20.019Z,3.90
2022-11-12T04:36:08.699Z,3.63
2022-11-12T04:38:59.722Z,3.70
2022-11-12T04:42:00.650Z,3.83
2022-11-12T04:45:07.307Z,3.73
2022-11-12T04:47:55.876Z,3.60
2022-11-12T04:50:45.222Z,3.80
2022-11-12T04:53:34.197Z,3.57
2022-11-12T04:56:25.122Z,2.93
2022-11-12T04:59:13.223Z,3.63
2022-11-12T05:02:01.661Z,3.50
2022-11-12T05:04:49.848Z,3.30
2022-11-12T05:07:38.132Z,2.60
2022-11-12T05:10:26.528Z,3.13
2022-11-12T05:13:17.565Z,3.40
2022-11-12T05:16:06.213Z,4.00
2022-11-12T05:18:54.566Z,3.60
2022-11-12T05:21:56.002Z,3.60
2022-11-12T05:24:46.425Z,3.83
2022-11-12T05:27:34.598Z,3.80
2022-11-12T05:30:25.312Z,3.90
2022-11-12T05:33:14.776Z,3.53
2022-11-12T05:36:03.204Z,4.20
2022-11-12T05:38:51.457Z,3.87
2022-11-12T05:41:58.285Z,3.67
2022-11-12T05:44:48.322Z,4.20
2022-11-12T05:47:39.356Z,3.77
2022-11-12T05:50:34.975Z,4.17
2022-11-12T05:53:27.997Z,4.00
2022-11-12T05:56:16.249Z,4.30
2022-11-12T05:59:05.000Z,4.50
2022-11-12T06:01:53.147Z,4.50
2022-11-12T06:04:44.134Z,4.73
2022-11-12T06:07:32.645Z,4.20
2022-11-12T06:10:21.037Z,3.80
2022-11-12T06:13:09.346Z,4.47
2022-11-12T06:15:58.597Z,3.40
2022-11-12T06:18:47.026Z,3.70
2022-11-12T06:21:38.065Z,5.00
2022-11-12T06:24:29.517Z,5.10
2022-11-12T06:27:24.011Z,7.03
2022-11-12T06:30:12.908Z,6.03
2022-11-12T06:33:01.335Z,6.33
2022-11-12T06:35:49.773Z,6.20
2022-11-12T06:38:42.747Z,6.20
2022-11-12T06:41:30.797Z,5.00
2022-11-12T06:44:22.147Z,5.03
2022-11-12T06:47:12.955Z,4.67
2022-11-12T06:50:02.470Z,4.43
2022-11-12T06:53:01.077Z,4.77
2022-11-12T06:55:52.010Z,4.80
2022-11-12T06:58:46.953Z,4.23
2022-11-12T07:01:36.258Z,4.83
2022-11-12T07:04:27.056Z,4.50
2022-11-12T07:07:15.304Z,4.73
2022-11-12T07:10:12.471Z,5.10
2022-11-12T07:13:03.517Z,5.50
2022-11-12T07:15:51.855Z,5.03
2022-11-12T07:18:40.901Z,5.97
2022-11-12T07:21:30.647Z,5.67
2022-11-12T07:24:19.010Z,5.23
2022-11-12T07:27:12.172Z,5.53
2022-11-12T07:30:03.877Z,5.00
2022-11-12T07:32:56.225Z,5.40
2022-11-12T07:35:58.869Z,5.10
2022-11-12T07:38:49.158Z,5.07
2022-11-12T07:41:37.494Z,5.20
2022-11-12T07:44:29.210Z,5.00
2022-11-12T07:47:22.207Z,5.30
2022-11-12T07:50:12.441Z,6.60
2022-11-12T07:53:01.665Z,5.00
2022-11-12T07:55:59.084Z,5.27
2022-11-12T07:58:50.521Z,6.20
2022-11-12T08:01:45.007Z,6.33
2022-11-12T08:04:36.092Z,7.60
2022-11-12T08:07:31.016Z,7.77
2022-11-12T08:10:20.330Z,7.83
2022-11-12T08:13:08.934Z,6.60
2022-11-12T08:16:00.442Z,7.90
2022-11-12T08:18:49.698Z,8.00
2022-11-12T08:21:46.660Z,8.23
2022-11-12T08:24:40.222Z,7.97
2022-11-12T08:27:28.345Z,7.20
2022-11-12T08:30:17.610Z,7.43
2022-11-12T08:33:08.891Z,7.63
2022-11-12T08:35:57.124Z,6.90
2022-11-12T08:38:48.574Z,7.00
2022-11-12T08:41:37.870Z,7.50
2022-11-12T08:44:25.925Z,7.73
2022-11-12T08:47:14.637Z,7.47
2022-11-12T08:50:04.333Z,8.67
2022-11-12T08:52:54.763Z,7.80
2022-11-12T08:55:47.013Z,7.40
2022-11-12T08:58:37.706Z,7.63
2022-11-12T09:01:29.277Z,8.10
2022-11-12T09:04:17.554Z,8.30
2022-11-12T09:07:09.734Z,21.17
2022-11-12T09:09:58.390Z,17.00
2022-11-12T09:12:53.993Z,14.03
2022-11-12T09:15:42.321Z,11.07
2022-11-12T09:18:30.583Z,10.30
2022-11-12T09:21:21.776Z,9.30
2022-11-12T09:24:10.481Z,9.20
2022-11-12T09:27:04.974Z,10.10
2022-11-12T09:29:59.860Z,9.77
2022-11-12T09:32:48.330Z,10.07
2022-11-12T09:35:37.842Z,9.07
2022-11-12T09:38:29.529Z,10.43
2022-11-12T09:41:28.748Z,10.63
2022-11-12T09:44:24.466Z,11.77
2022-11-12T09:47:21.986Z,10.37
2022-11-12T09:50:22.989Z,13.30
2022-11-12T09:53:18.297Z,12.33
2022-11-12T09:56:10.421Z,10.23
2022-11-12T09:59:03.314Z,10.80
2022-11-12T10:02:13.267Z,11.33
2022-11-12T10:05:25.059Z,12.73
2022-11-12T10:08:37.092Z,14.00
2022-11-12T10:12:07.919Z,13.80
2022-11-12T10:15:33.608Z,13.10
2022-11-12T10:18:38.407Z,13.90
2022-11-12T10:21:36.410Z,13.83
2022-11-12T10:24:26.267Z,15.27
2022-11-12T10:27:18.182Z,13.50
2022-11-12T10:30:10.142Z,13.53
2022-11-12T10:32:58.321Z,14.83
2022-11-12T10:35:54.099Z,13.33
2022-11-12T10:38:47.883Z,12.90
2022-11-12T10:41:38.369Z,12.00
2022-11-12T10:44:29.520Z,11.13
2022-11-12T10:47:30.391Z,12.80
2022-11-12T10:50:24.008Z,12.73
2022-11-12T10:53:16.408Z,13.17
2022-11-12T10:56:25.745Z,12.93
2022-11-12T10:59:18.673Z,13.90
2022-11-12T11:02:21.207Z,12.70
2022-11-12T11:05:33.187Z,13.90
2022-11-12T11:08:36.659Z,12.07
2022-11-12T11:11:30.934Z,11.47
2022-11-12T11:14:31.816Z,11.87
2022-11-12T11:17:21.636Z,11.00
2022-11-12T11:20:21.630Z,11.50
2022-11-12T11:23:19.207Z,10.90
2022-11-12T11:26:32.335Z,11.00
2022-11-12T11:29:36.689Z,10.73
2022-11-12T11:32:42.059Z,9.87
2022-11-12T11:35:49.276Z,9.90
2022-11-12T11:38:54.702Z,9.87
2022-11-12T11:42:00.515Z,9.20
2022-11-12T11:45:00.692Z,9.40
2022-11-12T11:48:01.534Z,9.20
2022-11-12T11:51:02.535Z,8.67
2022-11-12T11:54:01.910Z,9.63
2022-11-12T11:56:58.192Z,9.67
2022-11-12T12:00:06.062Z,9.00
2022-11-12T12:03:09.900Z,9.53
2022-11-12T12:06:25.202Z,9.30
2022-11-12T12:09:29.513Z,8.83
2022-11-12T12:12:36.763Z,8.47
2022-11-12T12:15:38.504Z,10.27
2022-11-12T12:18:40.026Z,10.20
2022-11-12T12:21:34.322Z,19.97
2022-11-12T12:24:28.141Z,20.53
2022-11-12T12:27:22.038Z,11.20
2022-11-12T12:30:22.457Z,13.63
2022-11-12T12:33:23.350Z,10.77
2022-11-12T12:36:21.016Z,9.40
2022-11-12T12:39:17.943Z,8.27
2022-11-12T12:42:15.704Z,8.67
2022-11-12T12:45:10.965Z,7.93
2022-11-12T12:48:09.989Z,7.10
2022-11-12T12:50:58.725Z,7.50
2022-11-12T12:53:48.032Z,7.40
2022-11-12T12:56:50.634Z,8.17
2022-11-12T12:59:39.715Z,7.23
2022-11-12T13:02:28.975Z,8.03
2022-11-12T13:05:33.023Z,6.70
2022-11-12T13:08:26.452Z,7.30
2022-11-12T13:12:04.751Z,8.23
2022-11-12T13:15:10.631Z,7.80
2022-11-12T13:18:00.939Z,6.90
2022-11-12T13:21:17.907Z,7.40
2022-11-12T13:24:10.961Z,10.07
2022-11-12T13:27:01.737Z,9.00
2022-11-12T13:29:51.112Z,9.33
2022-11-12T13:32:43.599Z,9.10
2022-11-12T13:35:35.764Z,9.53
2022-11-12T13:38:27.286Z,11.70
2022-11-12T13:41:43.930Z,15.73
2022-11-12T13:44:34.868Z,14.53
2022-11-12T13:47:29.319Z,12.53
2022-11-12T13:50:22.026Z,12.90
2022-11-12T13:53:22.898Z,12.03
2022-11-12T13:56:26.506Z,11.70
2022-11-12T13:59:19.141Z,10.40
2022-11-12T14:02:25.449Z,11.00
2022-11-12T14:05:18.247Z,15.20
2022-11-12T14:08:36.515Z,34.47
2022-11-12T14:11:47.809Z,25.13
2022-11-12T14:14:50.977Z,14.43
2022-11-12T14:17:48.857Z,11.97
2022-11-12T14:20:38.977Z,11.40
2022-11-12T14:23:29.589Z,10.87
2022-11-12T14:26:40.424Z,11.67
2022-11-12T14:29:34.299Z,9.97
2022-11-12T14:32:26.841Z,10.63
2022-11-12T14:35:40.655Z,10.10
2022-11-12T14:38:31.850Z,12.80
2022-11-12T14:41:23.742Z,11.97
2022-11-12T14:44:21.790Z,12.20
2022-11-12T14:47:12.880Z,12.07
2022-11-12T14:50:01.469Z,10.30
2022-11-12T14:52:54.974Z,10.47
2022-11-12T14:55:46.985Z,10.10
2022-11-12T14:58:36.178Z,10.53
2022-11-12T15:02:08.943Z,9.83
2022-11-12T15:04:41.204Z,10.27
2022-11-12T15:07:36.322Z,10.53
2022-11-12T15:10:35.656Z,11.00
2022-11-12T15:13:27.057Z,12.10
2022-11-12T15:16:23.946Z,13.67
2022-11-12T15:19:24.784Z,11.90
2022-11-12T15:22:22.639Z,10.83
2022-11-12T15:25:21.860Z,11.63
2022-11-12T15:28:25.049Z,11.73
2022-11-12T15:31:21.533Z,10.33
2022-11-12T15:34:34.500Z,11.90
2022-11-12T15:37:27.485Z,11.93
2022-11-12T15:40:21.367Z,11.43
2022-11-12T15:43:19.355Z,11.83
2022-11-12T15:46:16.686Z,11.97
2022-11-12T15:49:14.294Z,12.60
2022-11-12T15:52:05.015Z,12.03
2022-11-12T15:54:53.769Z,13.13
2022-11-12T15:57:45.168Z,13.37
2022-11-12T16:00:36.161Z,12.40
2022-11-12T16:03:25.663Z,12.57
2022-11-12T16:06:14.908Z,12.83
2022-11-12T16:09:09.105Z,14.17
2022-11-12T16:11:59.025Z,14.30
2022-11-12T16:14:47.283Z,13.07
2022-11-12T16:17:36.409Z,14.13
2022-11-12T16:20:28.098Z,13.17
2022-11-12T16:23:18.791Z,14.23
2022-11-12T16:26:11.843Z,13.30
2022-11-12T16:29:00.658Z,13.63
2022-11-12T16:31:52.468Z,14.30
2022-11-12T16:34:40.942Z,17.73
2022-11-12T16:37:29.202Z,18.80
2022-11-12T16:40:21.244Z,17.47
2022-11-12T16:43:12.164Z,21.23
2022-11-12T16:46:02.542Z,20.87
2022-11-12T16:48:52.263Z,19.27
2022-11-12T16:51:40.813Z,17.60
2022-11-12T16:54:29.087Z,16.00
2022-11-12T16:57:17.531Z,13.47
2022-11-12T17:00:10.659Z,13.03
2022-11-12T17:02:59.093Z,12.90
2022-11-12T17:05:54.099Z,13.10
2022-11-12T17:08:44.918Z,12.77
2022-11-12T17:11:33.562Z,14.20
2022-11-12T17:14:28.353Z,14.70
2022-11-12T17:17:20.767Z,16.07
2022-11-12T17:20:10.770Z,17.33
2022-11-12T17:22:58.971Z,17.57
2022-11-12T17:25:47.325Z,16.53
2022-11-12T17:28:39.743Z,15.80
2022-11-12T17:31:28.106Z,18.13
2022-11-12T17:34:25.356Z,16.60
2022-11-12T17:37:15.370Z,17.60
2022-11-12T17:40:03.912Z,16.57
2022-11-12T17:42:53.871Z,16.93
2022-11-12T17:45:52.013Z,14.80
2022-11-12T17:48:41.396Z,19.00
2022-11-12T17:51:33.597Z,16.17
2022-11-12T17:54:25.527Z,11.80
2022-11-12T17:57:13.586Z,10.90
2022-11-12T18:00:02.003Z,10.90
2022-11-12T18:02:50.803Z,10.37
2022-11-12T18:05:41.069Z,11.80
2022-11-12T18:08:32.020Z,13.67
2022-11-12T18:11:20.444Z,14.93
2022-11-12T18:14:09.260Z,14.27
2022-11-12T18:16:58.416Z,15.07
2022-11-12T18:19:47.845Z,14.13
2022-11-12T18:22:40.684Z,17.73
2022-11-12T18:25:34.600Z,15.40
2022-11-12T18:28:23.093Z,14.20
2022-11-12T18:31:15.764Z,12.73
2022-11-12T18:34:06.881Z,19.03
2022-11-12T18:36:55.518Z,30.07
2022-11-12T18:39:43.756Z,22.37
2022-11-12T18:42:35.522Z,17.80
2022-11-12T18:45:23.741Z,30.30
2022-11-12T18:48:13.996Z,37.97
2022-11-12T18:51:03.627Z,32.30
2022-11-12T18:53:51.930Z,30.37
2022-11-12T18:56:42.639Z,29.30
2022-11-12T18:59:33.707Z,17.30
2022-11-12T19:02:23.050Z,14.00
2022-11-12T19:05:11.912Z,11.80
2022-11-12T19:08:00.220Z,10.70
2022-11-12T19:10:52.100Z,11.13
2022-11-12T19:13:45.279Z,10.60
2022-11-12T19:16:38.289Z,10.90
2022-11-12T19:19:27.588Z,12.30
2022-11-12T19:22:16.217Z,11.67
2022-11-12T19:25:05.104Z,14.27
2022-11-12T19:27:53.404Z,14.50
2022-11-12T19:30:41.717Z,14.80
2022-11-12T19:33:33.934Z,14.40
2022-11-12T19:36:24.844Z,16.63
2022-11-12T19:39:13.179Z,18.03
2022-11-12T19:42:02.723Z,19.20
2022-11-12T19:44:52.532Z,18.43
2022-11-12T19:47:41.133Z,19.70
2022-11-12T19:50:34.137Z,18.77
2022-11-12T19:53:23.598Z,20.00
2022-11-12T19:56:12.042Z,20.50
2022-11-12T19:59:00.736Z,19.27
2022-11-12T20:01:49.166Z,22.27
2022-11-12T20:04:37.327Z,19.70
2022-11-12T20:07:28.343Z,20.63
2022-11-12T20:10:17.165Z,19.00
2022-11-12T20:13:09.306Z,17.60
2022-11-12T20:15:59.655Z,17.20
2022-11-12T20:18:55.537Z,16.10
2022-11-12T20:21:43.746Z,16.23
2022-11-12T20:24:34.750Z,16.57
2022-11-12T20:27:23.423Z,19.10
2022-11-12T20:30:13.542Z,17.17
2022-11-12T20:33:01.864Z,15.87
2022-11-12T20:35:50.319Z,13.67
2022-11-12T20:38:40.293Z,15.43
2022-11-12T20:41:32.217Z,16.47
2022-11-12T20:44:20.798Z,15.93
2022-11-12T20:47:13.318Z,15.47
2022-11-12T20:50:05.385Z,14.43
2022-11-12T20:52:53.646Z,13.53
2022-11-12T20:55:43.243Z,15.97
2022-11-12T20:58:37.985Z,15.63
2022-11-12T21:01:28.608Z,18.10
2022-11-12T21:04:17.342Z,15.10
2022-11-12T21:07:07.085Z,16.10
2022-11-12T21:09:55.374Z,16.80
2022-11-12T21:12:43.940Z,17.70
2022-11-12T21:15:34.759Z,16.60
2022-11-12T21:18:27.869Z,15.70
2022-11-12T21:21:21.921Z,18.00
2022-11-12T21:24:12.897Z,20.50
2022-11-12T21:27:01.315Z,16.23
2022-11-12T21:29:49.879Z,17.10
2022-11-12T21:32:41.521Z,16.10
2022-11-12T21:35:29.940Z,15.10
2022-11-12T21:38:19.548Z,14.30
2022-11-12T21:41:10.477Z,13.33
2022-11-12T21:43:58.983Z,13.73
2022-11-12T21:46:49.477Z,14.33
2022-11-12T21:49:44.037Z,14.30
2022-11-12T21:52:32.250Z,13.50
2022-11-12T21:55:20.491Z,13.63
2022-11-12T21:58:08.734Z,13.53
2022-11-12T22:00:57.910Z,12.40
2022-11-12T22:03:47.240Z,12.83
2022-11-12T22:06:41.101Z,15.80
2022-11-12T22:09:30.915Z,13.70
2022-11-12T22:12:19.747Z,14.70
2022-11-12T22:15:12.410Z,13.97
2022-11-12T22:18:01.056Z,12.43
2022-11-12T22:20:58.892Z,13.50
2022-11-12T22:23:51.481Z,12.60
2022-11-12T22:26:40.145Z,12.53
2022-11-12T22:29:28.302Z,13.47
2022-11-12T22:32:16.859Z,13.77
2022-11-12T22:35:05.120Z,12.63
2022-11-12T22:37:53.722Z,13.40
2022-11-12T22:40:44.505Z,13.53
2022-11-12T22:43:33.222Z,11.97
2022-11-12T22:46:25.497Z,12.50
2022-11-12T22:49:14.849Z,12.20
2022-11-12T22:52:02.939Z,11.73
2022-11-12T22:54:51.413Z,12.20
2022-11-12T22:57:42.705Z,12.07
2022-11-12T23:00:33.341Z,11.90
2022-11-12T23:03:21.962Z,11.30
2022-11-12T23:06:11.012Z,11.90
2022-11-12T23:09:00.633Z,11.30
2022-11-12T23:11:50.009Z,10.87
2022-11-12T23:14:41.063Z,10.57
2022-11-12T23:17:30.598Z,10.37
2022-11-12T23:20:20.224Z,10.90
2022-11-12T23:23:09.850Z,11.93
2022-11-12T23:26:05.878Z,10.53
2022-11-12T23:28:54.731Z,10.90
2022-11-12T23:31:45.882Z,10.97
2022-11-12T23:34:34.377Z,10.63
2022-11-12T23:37:22.640Z,10.50
2022-11-12T23:40:12.954Z,11.20
2022-11-12T23:43:01.179Z,10.00
2022-11-12T23:45:51.630Z,10.83
2022-11-12T23:48:43.648Z,11.00
2022-11-12T23:51:32.159Z,10.73
2022-11-12T23:54:20.630Z,10.70
2022-11-12T23:57:08.767Z,10.03
2022-11-12T23:59:56.884Z,10.30
